Time;durP1;ratioP1;P1;durP2;ratioP2;P2;SDS_P1;SDS_P2;PMS_P1;PMS_P2;Temp;Humidity;BMP_temperature;BMP_pressure;BME280_temperature;BME280_humidity;BME280_pressure;Samples;Min_cycle;Max_cycle;Signal;HPM_P1;HPM_P2
2022/05/05 00:01:26;;;;;;;;;;;;;;;1.31;65.74;99499.59;5032326;28;20378;-62
2022/05/05 00:03:51;;;;;;;;;;;;;;;1.29;65.85;99510.22;5033360;28;19932;-62
2022/05/05 00:06:17;;;;;;;;;;;;;;;1.28;65.95;99508.59;5033452;28;19929;-63
2022/05/05 00:08:43;;;;;;;;;;;;;;;1.27;66.47;99506.97;5033971;28;20063;-63
2022/05/05 00:16:37;;;;;;;;;;;;;;;1.27;65.69;99520.03;5033850;28;19929;-63
2022/05/05 00:19:02;;;;;;;;;;;;;;;1.25;65.72;99522.00;5033695;28;19947;-62
2022/05/05 00:21:28;;;;;;;;;;;;;;;1.24;66.66;99523.00;5033662;28;19929;-63
2022/05/05 00:23:53;;;;;;;;;;;;;;;1.24;66.10;99522.19;5032776;28;19967;-63
2022/05/05 00:26:19;;;;;;;;;;;;;;;1.24;66.51;99524.81;5032026;28;20321;-63
2022/05/05 00:28:44;;;;;;;;;;;;;;;1.21;66.55;99528.56;5032977;28;19931;-63
2022/05/05 00:31:10;;;;;;;;;;;;;;;1.20;66.13;99526.13;5032192;28;19929;-64
2022/05/05 00:33:35;;;;;;;;;;;;;;;1.20;66.31;99528.72;5033130;28;19924;-63
2022/05/05 00:36:01;;;;;;;;;;;;;;;1.20;66.13;99542.59;5031728;28;19935;-62
2022/05/05 00:38:26;;;;;;;;;;;;;;;1.21;66.18;99540.81;5032678;28;20301;-65
2022/05/05 00:40:52;;;;;;;;;;;;;;;1.18;66.39;99546.34;5033205;28;19933;-63
2022/05/05 00:43:17;;;;;;;;;;;;;;;1.16;66.34;99541.31;5032980;28;19987;-64
2022/05/05 00:45:43;;;;;;;;;;;;;;;1.13;66.75;99542.47;5033027;28;19933;-63
2022/05/05 00:48:09;;;;;;;;;;;;;;;1.08;66.89;99544.78;5032848;28;19925;-61
2022/05/05 00:50:35;;;;;;;;;;;;;;;1.04;66.83;99551.34;5032403;28;19933;-62
2022/05/05 00:53:00;;;;;;;;;;;;;;;1.05;67.26;99554.75;5032600;28;20455;-63
2022/05/05 00:55:26;;;;;;;;;;;;;;;0.99;66.82;99556.25;5032741;28;19929;-64
2022/05/05 00:57:51;;;;;;;;;;;;;;;0.95;66.95;99554.19;5031485;28;19925;-62
2022/05/05 01:00:17;;;;;;;;;;;;;;;0.92;66.75;99555.31;5015145;28;19935;-62
2022/05/05 01:02:42;;;;;;;;;;;;;;;0.87;66.78;99557.63;5032607;28;19987;-62
2022/05/05 01:05:08;;;;;;;;;;;;;;;0.85;67.11;99565.66;5032413;28;19925;-62
2022/05/05 01:07:34;;;;;;;;;;;;;;;0.81;66.86;99569.56;5032527;28;20439;-62
2022/05/05 01:09:59;;;;;;;;;;;;;;;0.80;67.29;99577.56;5032512;28;19988;-62
2022/05/05 01:12:29;;;;;;;;;;;;;;;0.80;67.73;99577.56;5032458;28;20301;-64
2022/05/05 01:14:55;;;;;;;;;;;;;;;0.77;67.24;99575.31;5014800;28;19929;-63
2022/05/05 01:17:21;;;;;;;;;;;;;;;0.78;67.73;99577.72;5014713;28;19979;-62
2022/05/05 01:19:47;;;;;;;;;;;;;;;0.79;67.92;99578.53;5031769;28;19925;-64
2022/05/05 01:22:15;;;;;;;;;;;;;;;0.74;67.87;99586.88;5032726;28;19928;-62
2022/05/05 01:30:09;;;;;;;;;;;;;;;0.61;68.58;99590.00;5032248;28;20433;-63
2022/05/05 01:32:34;;;;;;;;;;;;;;;0.59;67.81;99591.16;5032055;28;19925;-62
2022/05/05 01:35:00;;;;;;;;;;;;;;;0.58;68.09;99602.56;5032030;28;20378;-63
2022/05/05 01:37:26;;;;;;;;;;;;;;;0.58;67.96;99592.94;5030809;28;19925;-63
2022/05/05 01:39:52;;;;;;;;;;;;;;;0.61;67.99;99594.41;5031029;28;19931;-63
2022/05/05 01:42:18;;;;;;;;;;;;;;;0.64;68.16;99601.91;5032467;28;20292;-63
2022/05/05 01:44:43;;;;;;;;;;;;;;;0.77;67.58;99610.03;5032358;28;19925;-64
2022/05/05 01:47:09;;;;;;;;;;;;;;;0.96;67.38;99608.81;5032352;28;19969;-63
2022/05/05 01:49:34;;;;;;;;;;;;;;;1.16;66.56;99617.03;5031926;28;20422;-63
2022/05/05 01:51:59;;;;;;;;;;;;;;;1.35;65.59;99611.41;5031834;28;20031;-62
2022/05/05 01:54:25;;;;;;;;;;;;;;;1.58;65.00;99621.84;5030628;28;19924;-63
2022/05/05 01:56:51;;;;;;;;;;;;;;;1.77;64.21;99625.81;5031777;28;20475;-62
2022/05/05 01:59:16;;;;;;;;;;;;;;;2.03;63.31;99622.84;5032002;28;19925;-63
2022/05/05 02:01:42;;;;;;;;;;;;;;;2.33;62.55;99624.72;5031436;28;19928;-63
2022/05/05 02:04:08;;;;;;;;;;;;;;;2.52;61.63;99631.22;5031861;28;19925;-63
2022/05/05 02:06:35;;;;;;;;;;;;;;;2.63;61.12;99636.03;5031889;28;19980;-63
2022/05/05 02:09:01;;;;;;;;;;;;;;;2.52;60.94;99626.00;5031995;28;19925;-62
2022/05/05 02:11:26;;;;;;;;;;;;;;;2.53;61.25;99643.31;5030393;28;19936;-62
2022/05/05 02:13:51;;;;;;;;;;;;;;;2.74;60.53;99643.44;5031756;28;19965;-62
2022/05/05 02:16:17;;;;;;;;;;;;;;;3.10;59.76;99640.88;5031662;28;20027;-62
2022/05/05 02:18:43;;;;;;;;;;;;;;;3.48;58.28;99645.97;5031520;28;20022;-62
2022/05/05 02:21:08;;;;;;;;;;;;;;;3.74;57.71;99644.63;5029951;28;19987;-61
2022/05/05 02:23:34;;;;;;;;;;;;;;;3.84;56.79;99653.00;5031819;28;20382;-64
2022/05/05 02:25:59;;;;;;;;;;;;;;;4.07;56.41;99658.06;5031763;28;19956;-61
2022/05/05 02:28:26;;;;;;;;;;;;;;;4.33;55.74;99662.72;5029832;28;19925;-62
2022/05/05 02:30:51;;;;;;;;;;;;;;;4.68;53.98;99663.59;5034906;28;19929;-61
2022/05/05 02:33:17;;;;;;;;;;;;;;;4.99;53.83;99667.59;5034105;28;19932;-62
2022/05/05 02:35:42;;;;;;;;;;;;;;;5.27;52.20;99672.78;5035314;28;19929;-62
2022/05/05 02:40:52;;;;;;;;;;;;;;;5.34;51.37;99672.81;5034463;28;19952;-62
2022/05/05 02:43:18;;;;;;;;;;;;;;;5.47;51.14;99672.84;5035507;28;20533;-61
2022/05/05 02:45:43;;;;;;;;;;;;;;;5.52;51.57;99682.78;5035392;28;19939;-61
2022/05/05 02:48:09;;;;;;;;;;;;;;;5.84;50.49;99692.59;5033239;28;19931;-63
2022/05/05 02:50:34;;;;;;;;;;;;;;;6.09;49.75;99694.72;5035300;28;20421;-62
2022/05/05 02:53:00;;;;;;;;;;;;;;;6.28;49.10;99696.53;5034938;28;19925;-62
2022/05/05 02:55:26;;;;;;;;;;;;;;;6.51;48.85;99701.41;5034945;28;20427;-62
2022/05/05 02:57:52;;;;;;;;;;;;;;;6.48;48.10;99709.72;5033396;28;19925;-63
2022/05/05 03:00:20;;;;;;;;;;;;;;;6.55;48.42;99702.63;5035102;28;19952;-62
2022/05/05 03:02:46;;;;;;;;;;;;;;;6.69;47.98;99706.06;5035091;28;19925;-63
2022/05/05 03:05:13;;;;;;;;;;;;;;;6.82;47.40;99711.34;5034988;28;20322;-61
2022/05/05 03:07:39;;;;;;;;;;;;;;;6.77;47.33;99715.59;5034943;28;19959;-62
2022/05/05 03:10:05;;;;;;;;;;;;;;;7.15;47.55;99715.72;5034739;28;20417;-61
2022/05/05 03:12:30;;;;;;;;;;;;;;;7.04;47.38;99719.00;5034592;28;19925;-63
2022/05/05 03:14:56;;;;;;;;;;;;;;;7.28;46.55;99717.50;5034924;28;19925;-62
2022/05/05 03:17:21;;;;;;;;;;;;;;;7.29;46.71;99721.75;5034188;28;20420;-62
2022/05/05 03:19:47;;;;;;;;;;;;;;;7.53;46.16;99722.06;5034750;28;20382;-61
2022/05/05 03:22:12;;;;;;;;;;;;;;;7.39;46.22;99727.41;5034912;28;20401;-62
2022/05/05 03:24:38;;;;;;;;;;;;;;;7.57;45.78;99734.66;5034220;28;19931;-61
2022/05/05 03:27:04;;;;;;;;;;;;;;;7.81;45.20;99729.69;5033375;28;19953;-61
2022/05/05 03:29:30;;;;;;;;;;;;;;;7.91;44.70;99732.66;5034113;28;19925;-62
2022/05/05 03:31:55;;;;;;;;;;;;;;;7.87;44.77;99739.38;5034694;28;19955;-62
2022/05/05 03:34:21;;;;;;;;;;;;;;;7.94;45.20;99734.88;5032891;28;19925;-61
2022/05/05 03:36:46;;;;;;;;;;;;;;;7.84;44.55;99740.63;5034339;28;19983;-61
2022/05/05 03:39:12;;;;;;;;;;;;;;;7.80;44.71;99747.34;5034433;28;19964;-62
2022/05/05 03:41:37;;;;;;;;;;;;;;;7.72;44.14;99744.94;5032200;28;20616;-62
2022/05/05 03:44:05;;;;;;;;;;;;;;;7.34;45.16;99748.31;5032421;28;19925;-62
2022/05/05 03:46:31;;;;;;;;;;;;;;;7.55;44.50;99754.34;5034255;28;19937;-63
2022/05/05 03:48:56;;;;;;;;;;;;;;;7.24;44.91;99753.22;5034000;28;20015;-63
2022/05/05 03:51:22;;;;;;;;;;;;;;;7.23;45.06;99765.56;5032802;28;19979;-62
2022/05/05 03:53:47;;;;;;;;;;;;;;;7.70;44.94;99762.81;5033962;28;20082;-62
2022/05/05 03:56:13;;;;;;;;;;;;;;;7.79;43.92;99760.75;5033975;28;20436;-61
2022/05/05 03:58:38;;;;;;;;;;;;;;;7.83;43.73;99770.69;5033875;28;20333;-63
2022/05/05 04:01:04;;;;;;;;;;;;;;;7.88;43.44;99773.50;5034080;28;19939;-62
2022/05/05 04:03:32;;;;;;;;;;;;;;;7.95;43.24;99782.19;5033582;28;20006;-62
2022/05/05 04:05:58;;;;;;;;;;;;;;;7.94;43.27;99785.03;5033933;28;19925;-63
2022/05/05 04:08:25;;;;;;;;;;;;;;;8.17;43.18;99781.88;5033444;28;19983;-62
2022/05/05 04:10:50;;;;;;;;;;;;;;;8.05;42.46;99786.22;5033873;28;20060;-62
2022/05/05 04:13:16;;;;;;;;;;;;;;;7.92;42.46;99798.44;5032952;28;19983;-63
2022/05/05 04:15:41;;;;;;;;;;;;;;;8.14;43.02;99793.66;5033731;28;19936;-63
2022/05/05 04:18:07;;;;;;;;;;;;;;;8.36;41.87;99790.72;5033644;28;19925;-63
2022/05/05 04:20:33;;;;;;;;;;;;;;;8.55;40.96;99805.63;5033400;28;20032;-63
2022/05/05 04:22:58;;;;;;;;;;;;;;;8.61;40.29;99803.97;5033579;28;19947;-62
2022/05/05 04:25:24;;;;;;;;;;;;;;;8.76;40.14;99812.41;5033126;28;19929;-62
2022/05/05 04:27:49;;;;;;;;;;;;;;;8.70;39.73;99810.63;5033375;28;19925;-63
2022/05/05 04:30:18;;;;;;;;;;;;;;;8.90;39.06;99812.31;5032940;28;19925;-61
2022/05/05 04:32:44;;;;;;;;;;;;;;;9.02;38.03;99805.28;5032915;28;19990;-63
2022/05/05 04:35:10;;;;;;;;;;;;;;;8.83;38.50;99805.25;5031686;28;19929;-63
2022/05/05 04:37:35;;;;;;;;;;;;;;;8.86;38.52;99809.31;5032953;28;19925;-63
2022/05/05 04:40:01;;;;;;;;;;;;;;;8.84;37.76;99812.16;5015188;28;19932;-63
2022/05/05 04:42:28;;;;;;;;;;;;;;;9.16;38.17;99816.56;5033126;28;19931;-63
2022/05/05 04:44:53;;;;;;;;;;;;;;;9.03;37.74;99814.84;5032872;28;20309;-65
2022/05/05 04:47:19;;;;;;;;;;;;;;;8.83;37.44;99817.66;5033123;28;20286;-63
2022/05/05 04:49:44;;;;;;;;;;;;;;;8.58;37.92;99817.63;5032970;28;19925;-65
2022/05/05 04:52:10;;;;;;;;;;;;;;;8.32;37.78;99832.56;5033091;28;19935;-65
2022/05/05 04:54:35;;;;;;;;;;;;;;;8.23;38.00;99828.56;5032717;28;19960;-64
2022/05/05 04:57:01;;;;;;;;;;;;;;;8.14;37.90;99824.53;5031511;28;20031;-62
2022/05/05 04:59:27;;;;;;;;;;;;;;;8.15;38.20;99834.09;5032468;28;19979;-63
2022/05/05 05:01:52;;;;;;;;;;;;;;;7.82;37.54;99837.66;5032843;28;20047;-64
2022/05/05 05:04:18;;;;;;;;;;;;;;;7.82;38.12;99831.56;5031466;28;19925;-67
2022/05/05 05:06:43;;;;;;;;;;;;;;;8.00;38.13;99831.72;5031439;28;19933;-62
2022/05/05 05:09:09;;;;;;;;;;;;;;;7.88;37.91;99846.56;5031813;28;20028;-62
2022/05/05 05:11:34;;;;;;;;;;;;;;;7.74;36.22;99845.81;5032432;28;19931;-64
2022/05/05 05:14:00;;;;;;;;;;;;;;;7.35;35.68;99849.34;5032198;28;20361;-67
2022/05/05 05:16:26;;;;;;;;;;;;;;;7.19;36.50;99846.09;5030688;28;19936;-65
2022/05/05 05:18:53;;;;;;;;;;;;;;;7.09;36.53;99852.78;5014493;28;19990;-65
2022/05/05 05:21:19;;;;;;;;;;;;;;;6.72;37.44;99861.09;5031803;28;20050;-63
2022/05/05 05:23:45;;;;;;;;;;;;;;;6.73;38.09;99860.06;5032159;28;19925;-63
2022/05/05 05:26:10;;;;;;;;;;;;;;;6.60;37.72;99858.22;5032199;28;19936;-62
2022/05/05 05:28:36;;;;;;;;;;;;;;;6.66;36.73;99855.81;5031809;28;19956;-62
2022/05/05 05:31:01;;;;;;;;;;;;;;;6.47;36.03;99860.84;5030130;28;19929;-63
2022/05/05 05:33:27;;;;;;;;;;;;;;;6.47;36.52;99868.75;5030624;28;19929;-63
2022/05/05 05:35:52;;;;;;;;;;;;;;;6.45;36.40;99862.88;5030864;28;20379;-62
2022/05/05 05:38:19;;;;;;;;;;;;;;;6.44;36.63;99869.16;5031760;28;19929;-63
2022/05/05 05:40:44;;;;;;;;;;;;;;;6.46;35.38;99864.47;5011241;28;20143;-65
2022/05/05 05:43:10;;;;;;;;;;;;;;;6.53;34.62;99861.84;5011848;28;19929;-64
2022/05/05 05:45:35;;;;;;;;;;;;;;;6.64;34.86;99882.34;5012153;28;20416;-62
2022/05/05 05:48:01;;;;;;;;;;;;;;;6.67;33.77;99878.50;5034849;28;19932;-62
2022/05/05 05:50:28;;;;;;;;;;;;;;;6.43;33.67;99875.41;5031343;28;19929;-64
2022/05/05 05:52:54;;;;;;;;;;;;;;;6.42;33.10;99870.34;5031630;28;20027;-64
2022/05/05 05:55:20;;;;;;;;;;;;;;;6.39;33.07;99870.75;5030198;28;19936;-63
2022/05/05 05:57:45;;;;;;;;;;;;;;;6.42;33.93;99870.34;5013464;28;19925;-66
2022/05/05 06:00:11;;;;;;;;;;;;;;;6.44;34.62;99871.78;5031558;28;19932;-64
2022/05/05 06:05:22;;;;;;;;;;;;;;;6.45;33.61;99883.13;5034662;28;19928;-64
2022/05/05 06:07:48;;;;;;;;;;;;;;;6.22;32.96;99897.41;5034933;28;20390;-63
2022/05/05 06:10:16;;;;;;;;;;;;;;;6.24;33.18;99892.78;5053516;28;19951;-65
2022/05/05 06:12:41;;;;;;;;;;;;;;;6.21;34.12;99887.09;5036982;28;19921;-63
2022/05/05 06:15:08;;;;;;;;;;;;;;;6.43;33.61;99893.03;5033735;28;20282;-66
2022/05/05 06:17:33;;;;;;;;;;;;;;;6.47;32.46;99902.16;5036653;28;19924;-64
2022/05/05 06:19:59;;;;;;;;;;;;;;;6.52;32.17;99894.47;5033677;28;20103;-64
2022/05/05 06:22:24;;;;;;;;;;;;;;;6.60;32.90;99896.94;5037800;28;20225;-64
2022/05/05 06:24:50;;;;;;;;;;;;;;;6.81;32.31;99888.06;5037909;28;19928;-65
2022/05/05 06:27:15;;;;;;;;;;;;;;;6.88;32.37;99893.34;5036277;28;19933;-66
2022/05/05 06:29:41;;;;;;;;;;;;;;;7.08;31.45;99896.81;5037590;28;20018;-64
2022/05/05 06:32:07;;;;;;;;;;;;;;;7.07;31.45;99897.03;5038450;28;19947;-66
2022/05/05 06:34:32;;;;;;;;;;;;;;;7.09;31.23;99900.25;5037257;28;19925;-65
2022/05/05 06:36:59;;;;;;;;;;;;;;;7.12;30.58;99905.94;5037411;28;19929;-64
2022/05/05 06:39:25;;;;;;;;;;;;;;;7.26;31.48;99912.03;5019659;28;20015;-67
2022/05/05 06:41:50;;;;;;;;;;;;;;;7.36;30.79;99904.53;5032854;28;19930;-64
2022/05/05 06:44:16;;;;;;;;;;;;;;;7.48;30.31;99913.44;5017696;28;20318;-64
2022/05/05 06:46:44;;;;;;;;;;;;;;;7.27;29.45;99917.09;5035336;28;20289;-64
2022/05/05 06:49:10;;;;;;;;;;;;;;;7.23;29.16;99900.06;5015879;28;19932;-64
2022/05/05 06:51:37;;;;;;;;;;;;;;;7.07;30.02;99918.91;5037826;28;19929;-63
2022/05/05 06:54:02;;;;;;;;;;;;;;;7.06;29.70;99919.94;5037236;28;19925;-65
2022/05/05 06:56:29;;;;;;;;;;;;;;;6.81;30.40;99912.59;5037732;28;19951;-63
2022/05/05 06:58:54;;;;;;;;;;;;;;;6.86;30.33;99912.00;5037441;28;19968;-65
2022/05/05 07:06:48;;;;;;;;;;;;;;;7.11;28.92;99914.84;5036496;28;20022;-63
2022/05/05 07:11:58;;;;;;;;;;;;;;;7.13;28.73;99928.66;5037823;28;19925;-64
2022/05/05 07:14:23;;;;;;;;;;;;;;;7.00;29.02;99932.09;5037042;28;20262;-64
2022/05/05 07:16:50;;;;;;;;;;;;;;;7.07;29.07;99918.09;5032152;28;19925;-65
2022/05/05 07:19:15;;;;;;;;;;;;;;;7.00;29.04;99924.19;5034716;28;19932;-65
2022/05/05 07:21:40;;;;;;;;;;;;;;;7.22;30.08;99921.38;5033522;28;20004;-65
2022/05/05 07:24:06;;;;;;;;;;;;;;;7.25;29.70;99927.03;5031997;28;19925;-64
2022/05/05 07:26:32;;;;;;;;;;;;;;;7.27;29.50;99919.75;5032080;28;20023;-65
2022/05/05 07:28:58;;;;;;;;;;;;;;;7.26;29.53;99928.69;5032965;28;20071;-64
2022/05/05 07:31:23;;;;;;;;;;;;;;;7.30;29.20;99920.38;5030129;28;19968;-64
2022/05/05 07:33:49;;;;;;;;;;;;;;;7.18;30.67;99930.69;5027380;28;20008;-63
2022/05/05 07:36:14;;;;;;;;;;;;;;;7.27;30.72;99922.38;4995774;28;19933;-66
2022/05/05 07:38:40;;;;;;;;;;;;;;;7.33;30.93;99933.94;5021832;28;19932;-65
2022/05/05 07:41:06;;;;;;;;;;;;;;;7.39;30.70;99927.84;5013488;28;19956;-65
2022/05/05 07:43:31;;;;;;;;;;;;;;;7.15;29.92;99921.38;5014051;28;20377;-63
2022/05/05 07:45:57;;;;;;;;;;;;;;;7.26;30.16;99926.03;5013674;28;19968;-65
2022/05/05 07:48:22;;;;;;;;;;;;;;;7.46;29.53;99922.56;5011282;28;20492;-65
2022/05/05 07:50:48;;;;;;;;;;;;;;;7.79;29.41;99929.63;5012981;28;19936;-65
2022/05/05 07:53:14;;;;;;;;;;;;;;;7.97;29.39;99921.88;5012855;28;20096;-65
2022/05/05 07:55:39;;;;;;;;;;;;;;;8.04;29.06;99914.78;5019045;28;20343;-63
2022/05/05 07:58:05;;;;;;;;;;;;;;;7.78;29.80;99918.28;5033233;28;19999;-65
2022/05/05 08:00:30;;;;;;;;;;;;;;;8.00;29.79;99931.22;5030962;28;19929;-64
2022/05/05 08:02:56;;;;;;;;;;;;;;;8.14;29.38;99933.63;5031574;28;19971;-64
2022/05/05 08:05:21;;;;;;;;;;;;;;;8.17;29.23;99937.69;5031900;28;20044;-65
2022/05/05 08:07:49;;;;;;;;;;;;;;;8.15;29.09;99929.16;5031553;28;19971;-65
2022/05/05 08:10:18;;;;;;;;;;;;;;;8.34;28.76;99938.03;5013475;28;20506;-64
2022/05/05 08:12:45;;;;;;;;;;;;;;;8.18;28.03;99924.28;5010104;28;19926;-65
2022/05/05 08:15:11;;;;;;;;;;;;;;;8.04;28.06;99935.91;5020105;28;19952;-62
2022/05/05 08:17:37;;;;;;;;;;;;;;;7.89;28.50;99933.50;5021137;28;19925;-69
2022/05/05 08:20:03;;;;;;;;;;;;;;;7.96;28.46;99929.00;4998273;28;20007;-70
2022/05/05 08:22:29;;;;;;;;;;;;;;;8.07;28.28;99930.19;5012152;28;19976;-73
2022/05/05 08:30:24;;;;;;;;;;;;;;;7.70;28.42;99950.97;5012054;28;20056;-76
2022/05/05 08:32:49;;;;;;;;;;;;;;;7.46;28.49;99946.31;5030293;28;20321;-73
2022/05/05 08:35:15;;;;;;;;;;;;;;;7.59;28.56;99924.38;5030206;28;20020;-71
2022/05/05 08:37:41;;;;;;;;;;;;;;;7.54;28.98;99937.41;5030294;28;19924;-71
2022/05/05 08:40:10;;;;;;;;;;;;;;;7.57;29.65;99947.53;5030467;28;20429;-70
2022/05/05 08:42:40;;;;;;;;;;;;;;;7.49;29.11;99927.44;4998052;28;19925;-71
2022/05/05 08:45:06;;;;;;;;;;;;;;;7.73;29.77;99920.72;5031266;28;20015;-71
2022/05/05 08:47:32;;;;;;;;;;;;;;;7.87;29.09;99916.22;5031842;28;19925;-72
2022/05/05 08:50:00;;;;;;;;;;;;;;;8.02;28.27;99924.72;5029908;28;19970;-72
2022/05/05 08:52:26;;;;;;;;;;;;;;;8.25;28.22;99921.59;5029011;28;19932;-72
2022/05/05 08:54:51;;;;;;;;;;;;;;;8.52;28.08;99905.66;5029985;28;20329;-70
2022/05/05 08:57:17;;;;;;;;;;;;;;;8.48;27.86;99931.72;5030203;28;19932;-72
2022/05/05 08:59:43;;;;;;;;;;;;;;;8.42;28.74;99932.56;5030895;28;19971;-72
2022/05/05 09:02:10;;;;;;;;;;;;;;;8.26;28.78;99933.78;5030582;28;20310;-73
2022/05/05 09:04:36;;;;;;;;;;;;;;;8.20;29.04;99929.34;5030386;28;19932;-72
2022/05/05 09:07:03;;;;;;;;;;;;;;;8.27;28.01;99916.13;5013308;28;20402;-72
2022/05/05 09:09:33;;;;;;;;;;;;;;;8.36;27.85;99918.31;5029579;28;19939;-72
2022/05/05 09:12:17;;;;;;;;;;;;;;;8.35;27.88;99926.44;5031380;28;19951;-73
2022/05/05 09:14:43;;;;;;;;;;;;;;;8.39;28.52;99930.34;5029629;28;20375;-72
2022/05/05 09:17:10;;;;;;;;;;;;;;;8.24;28.18;99938.47;5029889;28;19960;-72
2022/05/05 09:19:39;;;;;;;;;;;;;;;8.07;28.28;99953.97;5029815;28;19979;-72
2022/05/05 09:22:05;;;;;;;;;;;;;;;8.06;28.28;99925.09;5029073;28;19957;-71
2022/05/05 09:24:41;;;;;;;;;;;;;;;8.28;27.80;99936.22;5031201;28;19931;-72
2022/05/05 09:27:36;;;;;;;;;;;;;;;8.53;27.51;99921.31;5029598;28;20394;-70
2022/05/05 09:30:01;;;;;;;;;;;;;;;8.61;27.69;99942.19;5047093;28;20402;-72
2022/05/05 09:32:29;;;;;;;;;;;;;;;8.55;27.33;99936.94;5030699;28;19925;-72
2022/05/05 09:34:55;;;;;;;;;;;;;;;8.55;27.60;99943.03;5030275;28;19932;-70
2022/05/05 09:37:21;;;;;;;;;;;;;;;8.50;28.04;99942.06;5013463;28;19932;-72
2022/05/05 09:39:49;;;;;;;;;;;;;;;8.38;28.12;99957.72;5030424;28;19979;-72
2022/05/05 09:42:34;;;;;;;;;;;;;;;8.13;28.58;99947.84;5028755;28;19941;-72
2022/05/05 09:45:22;;;;;;;;;;;;;;;8.08;28.90;99936.28;5030974;28;19972;-71
2022/05/05 09:51:28;;;;;;;;;;;;;;;8.08;27.71;99939.72;4969754;28;19929;-76
2022/05/05 09:57:55;;;;;;;;;;;;;;;8.17;27.59;99942.97;4962030;28;19940;-73
2022/05/05 10:05:40;;;;;;;;;;;;;;;8.51;27.19;99939.22;4992589;28;19957;-75
2022/05/05 10:08:06;;;;;;;;;;;;;;;8.52;27.06;99937.38;4960368;28;20019;-75
2022/05/05 10:10:32;;;;;;;;;;;;;;;8.52;27.42;99929.44;4992772;28;19979;-73
2022/05/05 10:12:58;;;;;;;;;;;;;;;8.37;26.53;99930.50;4992338;28;20293;-70
2022/05/05 10:15:24;;;;;;;;;;;;;;;8.38;27.00;99924.25;5008720;28;20080;-73
2022/05/05 10:17:49;;;;;;;;;;;;;;;8.50;27.39;99926.19;5008949;28;19983;-71
2022/05/05 10:20:16;;;;;;;;;;;;;;;8.58;26.70;99925.97;5007099;28;20314;-72
2022/05/05 10:22:46;;;;;;;;;;;;;;;8.57;26.89;99927.00;4956346;28;20055;-72
2022/05/05 10:25:14;;;;;;;;;;;;;;;8.71;26.77;99925.91;4991844;28;20370;-72
2022/05/05 10:27:41;;;;;;;;;;;;;;;8.57;26.87;99929.63;5028149;28;19931;-75
2022/05/05 10:30:13;;;;;;;;;;;;;;;8.58;26.89;99924.13;5011883;28;19925;-76
2022/05/05 10:32:38;;;;;;;;;;;;;;;8.62;26.85;99928.00;5028196;28;19979;-77
2022/05/05 10:35:07;;;;;;;;;;;;;;;8.71;26.62;99927.75;5028941;28;19933;-75
2022/05/05 10:37:34;;;;;;;;;;;;;;;8.71;27.25;99925.91;5028671;28;19925;-74
2022/05/05 10:40:09;;;;;;;;;;;;;;;8.61;27.16;99915.78;4995280;28;19960;-75
2022/05/05 10:42:41;;;;;;;;;;;;;;;8.53;27.19;99920.50;5014988;28;20022;-74
2022/05/05 10:45:14;;;;;;;;;;;;;;;8.52;26.67;99903.84;5028733;28;20352;-73
2022/05/05 10:47:55;;;;;;;;;;;;;;;8.67;26.30;99924.69;4995337;28;20368;-75
2022/05/05 10:50:28;;;;;;;;;;;;;;;8.61;26.35;99925.53;5028200;28;19973;-75
2022/05/05 10:52:54;;;;;;;;;;;;;;;8.51;26.30;99933.13;5029503;28;20048;-74
2022/05/05 10:55:32;;;;;;;;;;;;;;;8.50;26.02;99926.19;5024220;28;20019;-73
2022/05/05 10:57:58;;;;;;;;;;;;;;;8.57;26.24;99922.50;5032562;28;19932;-75
2022/05/05 11:00:24;;;;;;;;;;;;;;;8.70;26.26;99926.09;5030857;28;19929;-76
2022/05/05 11:03:05;;;;;;;;;;;;;;;8.99;25.40;99919.44;5036290;28;19932;-75
2022/05/05 11:06:32;;;;;;;;;;;;;;;9.17;25.75;99919.50;5014184;28;19933;-72
2022/05/05 11:08:58;;;;;;;;;;;;;;;9.23;26.00;99915.19;5033228;28;19971;-71
2022/05/05 11:11:42;;;;;;;;;;;;;;;9.11;25.90;99925.66;5033867;28;19929;-73
2022/05/05 11:23:18;;;;;;;;;;;;;;;9.06;25.87;99915.72;5033865;28;19925;-75
2022/05/05 11:25:44;;;;;;;;;;;;;;;9.12;25.83;99910.56;5015640;28;19933;-75
2022/05/05 11:28:10;;;;;;;;;;;;;;;9.18;25.20;99905.25;5015447;28;19971;-76
2022/05/05 11:30:36;;;;;;;;;;;;;;;9.21;25.63;99914.59;5033574;28;20014;-74
2022/05/05 11:33:03;;;;;;;;;;;;;;;9.27;26.60;99909.25;5013155;28;20287;-76
2022/05/05 11:35:29;;;;;;;;;;;;;;;9.37;25.28;99905.31;5048021;28;19929;-74
2022/05/05 11:37:55;;;;;;;;;;;;;;;9.47;25.45;99900.31;5031331;28;19932;-74
2022/05/05 11:40:20;;;;;;;;;;;;;;;9.47;25.79;99906.44;5031746;28;19936;-73
2022/05/05 11:45:30;;;;;;;;;;;;;;;9.44;26.38;99898.94;5031134;28;19992;-73
2022/05/05 11:47:56;;;;;;;;;;;;;;;9.47;25.44;99897.69;5031254;28;19975;-74
2022/05/05 11:50:22;;;;;;;;;;;;;;;9.42;25.72;99903.63;5033577;28;20378;-73
2022/05/05 11:52:47;;;;;;;;;;;;;;;9.40;25.73;99907.53;5031508;28;20517;-74
2022/05/05 11:55:13;;;;;;;;;;;;;;;9.29;25.79;99909.88;5033481;28;19925;-74
2022/05/05 11:57:39;;;;;;;;;;;;;;;9.28;26.28;99913.50;5031949;28;19928;-74
2022/05/05 12:02:54;;;;;;;;;;;;;;;9.21;26.29;99896.09;5032051;28;19932;-75
2022/05/05 12:05:24;;;;;;;;;;;;;;;9.26;26.57;99902.31;5031997;28;19929;-74
2022/05/05 12:07:50;;;;;;;;;;;;;;;9.27;25.80;99895.22;5032632;28;20398;-73
2022/05/05 12:10:16;;;;;;;;;;;;;;;9.28;25.50;99899.47;5033556;28;21053;-74
2022/05/05 12:12:46;;;;;;;;;;;;;;;9.37;25.32;99884.16;5032318;28;19932;-74
2022/05/05 12:15:11;;;;;;;;;;;;;;;9.38;25.48;99898.97;5014688;28;19925;-74
2022/05/05 12:17:42;;;;;;;;;;;;;;;9.39;26.51;99900.63;5030606;28;19940;-74
2022/05/05 12:20:11;;;;;;;;;;;;;;;9.38;25.68;99909.56;5030178;28;19925;-73
2022/05/05 12:22:38;;;;;;;;;;;;;;;9.47;26.07;99916.19;5031044;28;19931;-74
2022/05/05 12:25:13;;;;;;;;;;;;;;;9.36;25.59;99915.09;5028832;28;19940;-75
2022/05/05 12:27:39;;;;;;;;;;;;;;;9.29;26.06;99911.66;5028702;28;20018;-73
2022/05/05 12:30:05;;;;;;;;;;;;;;;9.29;24.92;99907.22;5031460;28;20421;-74
2022/05/05 12:32:31;;;;;;;;;;;;;;;9.28;25.78;99910.88;5012865;28;19968;-73
2022/05/05 12:35:01;;;;;;;;;;;;;;;9.45;25.90;99911.13;5025786;28;19925;-73
2022/05/05 12:37:28;;;;;;;;;;;;;;;9.52;25.51;99898.66;5030859;28;20353;-72
2022/05/05 12:39:56;;;;;;;;;;;;;;;9.63;25.37;99898.97;5029286;28;20214;-75
2022/05/05 12:42:22;;;;;;;;;;;;;;;9.74;24.90;99901.72;5029568;28;19929;-70
2022/05/05 12:44:49;;;;;;;;;;;;;;;9.82;25.27;99900.59;5031404;28;19932;-71
2022/05/05 12:47:20;;;;;;;;;;;;;;;9.88;25.38;99890.97;5014138;28;19933;-69
2022/05/05 12:49:45;;;;;;;;;;;;;;;9.92;25.46;99906.22;5029845;28;20464;-71
2022/05/05 12:59:36;;;;;;;;;;;;;;;9.89;24.57;99892.59;5030719;28;19929;-70
2022/05/05 13:00:24;;;;;;;;;;;;;;;9.80;24.08;99893.94;5031902;28;19979;-70
2022/05/05 13:02:52;;;;;;;;;;;;;;;9.73;25.18;99910.66;5031579;28;19960;-71
2022/05/05 13:05:19;;;;;;;;;;;;;;;9.60;25.30;99904.72;4996286;28;20318;-71
2022/05/05 13:07:44;;;;;;;;;;;;;;;9.58;25.28;99904.09;4997760;28;19990;-70
2022/05/05 13:10:10;;;;;;;;;;;;;;;9.62;25.45;99905.28;5031863;28;20425;-72
2022/05/05 13:12:37;;;;;;;;;;;;;;;9.74;24.85;99912.31;5027714;28;19928;-72
2022/05/05 13:15:04;;;;;;;;;;;;;;;9.69;24.85;99900.75;5044138;28;19929;-72
2022/05/05 13:17:34;;;;;;;;;;;;;;;9.63;25.13;99909.56;5029249;28;19932;-72
2022/05/05 13:19:59;;;;;;;;;;;;;;;9.59;26.04;99903.06;5031072;28;19932;-70
2022/05/05 13:22:25;;;;;;;;;;;;;;;9.66;25.40;99901.19;5019272;28;19925;-73
2022/05/05 13:24:50;;;;;;;;;;;;;;;9.70;25.23;99911.09;5025722;28;19925;-71
2022/05/05 13:27:16;;;;;;;;;;;;;;;9.82;25.11;99899.78;5031209;28;19940;-71
2022/05/05 13:29:41;;;;;;;;;;;;;;;9.83;25.22;99899.59;5018559;28;19933;-69
2022/05/05 13:32:08;;;;;;;;;;;;;;;9.81;25.11;99899.00;5027796;28;19929;-72
2022/05/05 13:34:33;;;;;;;;;;;;;;;9.72;24.87;99898.47;5028295;28;19925;-71
2022/05/05 13:36:59;;;;;;;;;;;;;;;9.74;24.93;99900.91;5028259;28;20024;-72
2022/05/05 13:39:26;;;;;;;;;;;;;;;9.72;24.50;99908.25;5030792;28;20369;-70
2022/05/05 13:41:51;;;;;;;;;;;;;;;9.67;25.06;99897.50;5029274;28;19928;-71
2022/05/05 13:44:17;;;;;;;;;;;;;;;9.69;24.88;99901.56;5028307;28;20032;-69
2022/05/05 13:46:43;;;;;;;;;;;;;;;9.72;25.29;99901.09;5027847;28;19929;-70
2022/05/05 13:49:08;;;;;;;;;;;;;;;9.73;25.64;99897.44;5028511;28;20352;-70
2022/05/05 13:51:34;;;;;;;;;;;;;;;9.81;26.52;99908.78;5029918;28;20325;-71
2022/05/05 13:53:59;;;;;;;;;;;;;;;9.83;26.27;99899.59;5029028;28;19925;-70
2022/05/05 13:56:25;;;;;;;;;;;;;;;9.85;25.95;99904.66;5029766;28;19933;-70
2022/05/05 13:58:51;;;;;;;;;;;;;;;9.81;25.93;99896.34;5028257;28;19956;-71